Terminal Aerodrome Forecast
Issued by NWS

Home | Current Version | Previous Version | Text Only | Print | Product List | Glossary Off
Versions: 1 2 3 4 5 6 7 8 9 10 11 12 13 14 15 16 17 18 19 20 21 22 23 24 25 26 27 28

000
FTUS43 KICT 240835 AAA
TAFRSL
TAF AMD
KRSL 240835Z 2409/2506 13005KT 4SM BR SCT003 BKN015
      TEMPO 2409/2413 2SM BR BKN003
     FM241600 16010KT 6SM BR OVC015
     FM241800 16013KT P6SM VCTS SCT020 BKN035CB=

USA.gov is the U.S. government's official web portal to all federal, state and local government web resources and services.